Flight Track Log - Related Links

Times and Time Zones

All times are in EDT time to prevent confusion due to time zone crossing. See the SLI159 flight status page for this flight to view local times or setup timezone preferences in your user account.

Time Position Orientation Groundspeed Altitude Reporting Facility
EDT Latitude Longitude Course Direction KTS MPH feet Rate Location/Type
Mon 07:21:00 PM 20.0316 -99.9500 123° Southeast  Level Estimated
Mon 07:22:00 PM 19.9471 -99.8246 126° Southeast  Level Estimated
Mon 07:23:00 PM 19.8625 -99.6993 126° Southeast  Level Estimated
Mon 07:24:00 PM 19.7778 -99.5742 126° Southeast  Level Estimated
Mon 07:25:00 PM 19.6931 -99.4492 126° Southeast  Level Estimated
Mon 07:26:00 PM 19.6082 -99.3243 126° Southeast  Level Estimated
Mon 07:27:00 PM 19.5233 -99.1995 126° Southeast  Level Estimated
Mon 07:28:00 PM 19.4382 -99.0749 126° Southeast  Level Estimated
Mon 07:29:00 PM 19.4363 -99.0721 126° Southeast  Level Estimated
Mon 07:30:00 PM 19.4363 -99.0721 43° Northeast  Level Estimated
Mon 07:31:00 PM 19.4363 -99.0721 43° Northeast  Level Estimated
Mon 07:32:00 PM 19.4363 -99.0721 43° Northeast  Level Estimated
Mon 07:33:00 PM 19.4363 -99.0721 43° Northeast  Level Estimated
Mon 07:34:00 PM 19.4363 -99.0721 43° Northeast  Level Estimated
Mon 07:35:00 PM 19.4363 -99.0721 43° Northeast  Level Estimated
Mon 07:36:00 PM 19.4363 -99.0721 43° Northeast  Level Estimated
Mon 07:37:00 PM 19.4363 -99.0721 43° Northeast  Level Estimated
Mon 07:38:00 PM 19.4363 -99.0721 43° Northeast  Level Estimated
Mon 07:39:00 PM 19.4363 -99.0721 43° Northeast  Level Estimated
Mon 07:40:00 PM 19.4363 -99.0721 43° Northeast  Level Estimated
Mon 07:41:00 PM 19.4363 -99.0721 43° Northeast  Level Estimated
Mon 07:42:00 PM 19.4363 -99.0721 43° Northeast  Level Estimated
Mon 07:43:00 PM 19.4363 -99.0721 43° Northeast  Level Estimated
Mon 07:44:00 PM 19.4363 -99.0721 43° Northeast  Level Estimated

Login

Don't have an account? Register now (free) for customized features, flight alerts, and more!